sensor_id;sensor_type;location;lat;lon;timestamp;temperature;humidity
14995;DHT22;7593;49.006;8.372;2022-08-25T00:00:59;24.20;85.50
14995;DHT22;7593;49.006;8.372;2022-08-25T00:03:26;24.10;85.40
14995;DHT22;7593;49.006;8.372;2022-08-25T00:05:53;24.00;85.70
14995;DHT22;7593;49.006;8.372;2022-08-25T00:08:20;23.90;85.90
14995;DHT22;7593;49.006;8.372;2022-08-25T00:10:46;23.80;86.30
14995;DHT22;7593;49.006;8.372;2022-08-25T00:13:15;23.70;86.80
14995;DHT22;7593;49.006;8.372;2022-08-25T00:15:41;23.50;87.00
14995;DHT22;7593;49.006;8.372;2022-08-25T00:18:08;23.50;87.60
14995;DHT22;7593;49.006;8.372;2022-08-25T00:20:38;23.40;88.00
14995;DHT22;7593;49.006;8.372;2022-08-25T00:23:05;23.30;88.20
14995;DHT22;7593;49.006;8.372;2022-08-25T00:25:32;23.20;88.50
14995;DHT22;7593;49.006;8.372;2022-08-25T00:27:59;23.20;88.90
14995;DHT22;7593;49.006;8.372;2022-08-25T00:30:27;23.10;89.10
14995;DHT22;7593;49.006;8.372;2022-08-25T00:32:54;23.10;89.20
14995;DHT22;7593;49.006;8.372;2022-08-25T00:35:22;23.10;89.40
14995;DHT22;7593;49.006;8.372;2022-08-25T00:37:49;23.10;89.70
14995;DHT22;7593;49.006;8.372;2022-08-25T00:40:16;23.00;89.70
14995;DHT22;7593;49.006;8.372;2022-08-25T00:42:42;22.90;89.70
14995;DHT22;7593;49.006;8.372;2022-08-25T00:45:09;22.90;89.80
14995;DHT22;7593;49.006;8.372;2022-08-25T00:47:38;22.90;90.00
14995;DHT22;7593;49.006;8.372;2022-08-25T00:50:08;22.80;90.40
14995;DHT22;7593;49.006;8.372;2022-08-25T00:52:37;22.80;90.20
14995;DHT22;7593;49.006;8.372;2022-08-25T00:55:09;22.70;90.20
14995;DHT22;7593;49.006;8.372;2022-08-25T00:57:38;22.70;90.30
14995;DHT22;7593;49.006;8.372;2022-08-25T01:00:08;22.70;90.40
14995;DHT22;7593;49.006;8.372;2022-08-25T01:02:37;22.60;90.40
14995;DHT22;7593;49.006;8.372;2022-08-25T01:05:05;22.60;90.50
14995;DHT22;7593;49.006;8.372;2022-08-25T01:07:33;22.50;90.60
14995;DHT22;7593;49.006;8.372;2022-08-25T01:10:00;22.40;90.70
14995;DHT22;7593;49.006;8.372;2022-08-25T01:12:27;22.40;90.80
14995;DHT22;7593;49.006;8.372;2022-08-25T01:14:55;22.30;90.90
14995;DHT22;7593;49.006;8.372;2022-08-25T01:17:22;22.30;91.00
14995;DHT22;7593;49.006;8.372;2022-08-25T01:19:53;22.30;91.10
14995;DHT22;7593;49.006;8.372;2022-08-25T01:22:22;22.30;91.20
14995;DHT22;7593;49.006;8.372;2022-08-25T01:24:55;22.30;91.20
14995;DHT22;7593;49.006;8.372;2022-08-25T01:27:25;22.30;91.30
14995;DHT22;7593;49.006;8.372;2022-08-25T01:29:53;22.30;91.30
14995;DHT22;7593;49.006;8.372;2022-08-25T01:32:19;22.30;91.30
14995;DHT22;7593;49.006;8.372;2022-08-25T01:34:46;22.30;91.30
14995;DHT22;7593;49.006;8.372;2022-08-25T01:37:14;22.30;91.30
14995;DHT22;7593;49.006;8.372;2022-08-25T01:39:42;22.40;91.40
14995;DHT22;7593;49.006;8.372;2022-08-25T01:42:22;22.40;91.40
14995;DHT22;7593;49.006;8.372;2022-08-25T01:44:49;22.40;91.40
14995;DHT22;7593;49.006;8.372;2022-08-25T01:47:16;22.30;91.70
14995;DHT22;7593;49.006;8.372;2022-08-25T01:49:43;22.30;91.40
14995;DHT22;7593;49.006;8.372;2022-08-25T01:52:14;22.30;91.50
14995;DHT22;7593;49.006;8.372;2022-08-25T01:54:42;22.30;91.60
14995;DHT22;7593;49.006;8.372;2022-08-25T01:57:09;22.20;91.60
14995;DHT22;7593;49.006;8.372;2022-08-25T01:59:36;22.20;91.70
14995;DHT22;7593;49.006;8.372;2022-08-25T02:02:03;22.20;92.10
14995;DHT22;7593;49.006;8.372;2022-08-25T02:04:30;22.20;91.90
14995;DHT22;7593;49.006;8.372;2022-08-25T02:06:57;22.20;91.90
14995;DHT22;7593;49.006;8.372;2022-08-25T02:09:24;22.20;92.00
14995;DHT22;7593;49.006;8.372;2022-08-25T02:11:53;22.20;92.00
14995;DHT22;7593;49.006;8.372;2022-08-25T02:14:21;22.20;92.00
14995;DHT22;7593;49.006;8.372;2022-08-25T02:16:50;22.20;92.10
14995;DHT22;7593;49.006;8.372;2022-08-25T02:19:17;22.20;92.00
14995;DHT22;7593;49.006;8.372;2022-08-25T02:21:44;22.20;92.00
14995;DHT22;7593;49.006;8.372;2022-08-25T02:24:12;22.30;92.10
14995;DHT22;7593;49.006;8.372;2022-08-25T02:26:39;22.30;92.00
14995;DHT22;7593;49.006;8.372;2022-08-25T02:29:08;22.30;92.10
14995;DHT22;7593;49.006;8.372;2022-08-25T02:31:35;22.30;92.10
14995;DHT22;7593;49.006;8.372;2022-08-25T02:34:03;22.30;92.10
14995;DHT22;7593;49.006;8.372;2022-08-25T02:36:30;22.30;92.20
14995;DHT22;7593;49.006;8.372;2022-08-25T02:38:58;22.30;92.20
14995;DHT22;7593;49.006;8.372;2022-08-25T02:41:25;22.20;92.20
14995;DHT22;7593;49.006;8.372;2022-08-25T02:43:51;22.20;92.30
14995;DHT22;7593;49.006;8.372;2022-08-25T02:46:21;22.20;92.40
14995;DHT22;7593;49.006;8.372;2022-08-25T02:48:49;22.20;92.50
14995;DHT22;7593;49.006;8.372;2022-08-25T02:51:18;22.20;92.50
14995;DHT22;7593;49.006;8.372;2022-08-25T02:53:45;22.20;92.50
14995;DHT22;7593;49.006;8.372;2022-08-25T02:56:13;22.20;92.60
14995;DHT22;7593;49.006;8.372;2022-08-25T02:58:41;22.20;92.70
14995;DHT22;7593;49.006;8.372;2022-08-25T03:01:09;22.10;92.80
14995;DHT22;7593;49.006;8.372;2022-08-25T03:03:38;22.00;92.80
14995;DHT22;7593;49.006;8.372;2022-08-25T03:06:06;22.00;92.90
14995;DHT22;7593;49.006;8.372;2022-08-25T03:08:34;22.00;92.90
14995;DHT22;7593;49.006;8.372;2022-08-25T03:11:01;22.00;93.00
14995;DHT22;7593;49.006;8.372;2022-08-25T03:13:27;21.90;93.00
14995;DHT22;7593;49.006;8.372;2022-08-25T03:15:54;21.90;93.10
14995;DHT22;7593;49.006;8.372;2022-08-25T03:18:21;21.90;93.20
14995;DHT22;7593;49.006;8.372;2022-08-25T03:20:49;21.80;93.20
14995;DHT22;7593;49.006;8.372;2022-08-25T03:23:16;21.80;93.30
14995;DHT22;7593;49.006;8.372;2022-08-25T03:25:43;21.80;93.40
14995;DHT22;7593;49.006;8.372;2022-08-25T03:28:28;21.80;93.40
14995;DHT22;7593;49.006;8.372;2022-08-25T03:30:55;21.70;93.20
14995;DHT22;7593;49.006;8.372;2022-08-25T03:33:24;21.60;93.40
14995;DHT22;7593;49.006;8.372;2022-08-25T03:35:52;21.40;93.90
14995;DHT22;7593;49.006;8.372;2022-08-25T03:38:19;21.30;93.70
14995;DHT22;7593;49.006;8.372;2022-08-25T03:40:47;21.10;93.90
14995;DHT22;7593;49.006;8.372;2022-08-25T03:43:14;21.00;94.20
14995;DHT22;7593;49.006;8.372;2022-08-25T03:45:42;20.90;94.70
14995;DHT22;7593;49.006;8.372;2022-08-25T03:48:09;20.70;94.50
14995;DHT22;7593;49.006;8.372;2022-08-25T03:50:36;20.70;94.80
14995;DHT22;7593;49.006;8.372;2022-08-25T03:53:10;20.60;94.90
14995;DHT22;7593;49.006;8.372;2022-08-25T03:55:37;20.60;95.10
14995;DHT22;7593;49.006;8.372;2022-08-25T03:58:04;20.60;95.20
14995;DHT22;7593;49.006;8.372;2022-08-25T04:00:30;20.60;95.30
14995;DHT22;7593;49.006;8.372;2022-08-25T04:02:57;20.60;95.40
14995;DHT22;7593;49.006;8.372;2022-08-25T04:05:24;20.60;95.30
14995;DHT22;7593;49.006;8.372;2022-08-25T04:07:51;20.60;95.40
14995;DHT22;7593;49.006;8.372;2022-08-25T04:10:19;20.60;95.40
14995;DHT22;7593;49.006;8.372;2022-08-25T04:12:46;20.60;95.50
14995;DHT22;7593;49.006;8.372;2022-08-25T04:15:14;20.60;95.50
14995;DHT22;7593;49.006;8.372;2022-08-25T04:17:40;20.60;95.50
14995;DHT22;7593;49.006;8.372;2022-08-25T04:20:09;20.60;95.60
14995;DHT22;7593;49.006;8.372;2022-08-25T04:22:36;20.60;95.60
14995;DHT22;7593;49.006;8.372;2022-08-25T04:25:04;20.60;95.60
14995;DHT22;7593;49.006;8.372;2022-08-25T04:27:33;20.60;95.70
14995;DHT22;7593;49.006;8.372;2022-08-25T04:29:59;20.60;95.60
14995;DHT22;7593;49.006;8.372;2022-08-25T04:32:26;20.70;95.80
14995;DHT22;7593;49.006;8.372;2022-08-25T04:34:53;20.60;95.80
14995;DHT22;7593;49.006;8.372;2022-08-25T04:37:20;20.60;95.80
14995;DHT22;7593;49.006;8.372;2022-08-25T04:39:47;20.60;95.80
14995;DHT22;7593;49.006;8.372;2022-08-25T04:42:13;20.60;95.90
14995;DHT22;7593;49.006;8.372;2022-08-25T04:44:42;20.60;95.90
14995;DHT22;7593;49.006;8.372;2022-08-25T04:47:08;20.60;96.00
14995;DHT22;7593;49.006;8.372;2022-08-25T04:49:35;20.60;96.10
14995;DHT22;7593;49.006;8.372;2022-08-25T04:52:03;20.50;96.10
14995;DHT22;7593;49.006;8.372;2022-08-25T04:54:30;20.50;96.20
14995;DHT22;7593;49.006;8.372;2022-08-25T04:56:56;20.50;96.30
14995;DHT22;7593;49.006;8.372;2022-08-25T04:59:23;20.50;96.40
14995;DHT22;7593;49.006;8.372;2022-08-25T05:01:52;20.40;96.40
14995;DHT22;7593;49.006;8.372;2022-08-25T05:04:20;20.40;96.50
14995;DHT22;7593;49.006;8.372;2022-08-25T05:06:47;20.40;96.50
14995;DHT22;7593;49.006;8.372;2022-08-25T05:09:14;20.40;96.60
14995;DHT22;7593;49.006;8.372;2022-08-25T05:11:40;20.40;96.60
14995;DHT22;7593;49.006;8.372;2022-08-25T05:14:07;20.40;96.60
14995;DHT22;7593;49.006;8.372;2022-08-25T05:16:37;20.50;96.60
14995;DHT22;7593;49.006;8.372;2022-08-25T05:19:06;20.50;96.60
14995;DHT22;7593;49.006;8.372;2022-08-25T05:21:33;20.50;96.60
14995;DHT22;7593;49.006;8.372;2022-08-25T05:24:02;20.60;96.60
14995;DHT22;7593;49.006;8.372;2022-08-25T05:26:30;20.60;96.60
14995;DHT22;7593;49.006;8.372;2022-08-25T05:28:59;20.60;96.60
14995;DHT22;7593;49.006;8.372;2022-08-25T05:31:26;20.70;96.50
14995;DHT22;7593;49.006;8.372;2022-08-25T05:33:54;20.70;96.50
14995;DHT22;7593;49.006;8.372;2022-08-25T05:36:24;20.70;96.50
14995;DHT22;7593;49.006;8.372;2022-08-25T05:38:51;20.70;96.50
14995;DHT22;7593;49.006;8.372;2022-08-25T05:41:20;20.70;96.50
14995;DHT22;7593;49.006;8.372;2022-08-25T05:43:48;20.80;96.50
14995;DHT22;7593;49.006;8.372;2022-08-25T05:46:17;20.80;96.30
14995;DHT22;7593;49.006;8.372;2022-08-25T05:48:44;20.90;96.30
14995;DHT22;7593;49.006;8.372;2022-08-25T05:51:12;20.90;96.10
14995;DHT22;7593;49.006;8.372;2022-08-25T05:53:43;20.90;96.10
14995;DHT22;7593;49.006;8.372;2022-08-25T05:56:10;21.00;96.20
14995;DHT22;7593;49.006;8.372;2022-08-25T05:58:38;21.50;95.80
14995;DHT22;7593;49.006;8.372;2022-08-25T06:01:06;22.10;95.20
14995;DHT22;7593;49.006;8.372;2022-08-25T06:03:51;22.70;94.10
14995;DHT22;7593;49.006;8.372;2022-08-25T06:06:19;23.40;93.20
14995;DHT22;7593;49.006;8.372;2022-08-25T06:08:48;23.80;92.70
14995;DHT22;7593;49.006;8.372;2022-08-25T06:11:15;24.30;91.90
14995;DHT22;7593;49.006;8.372;2022-08-25T06:13:42;24.70;91.40
14995;DHT22;7593;49.006;8.372;2022-08-25T06:16:10;24.80;91.10
14995;DHT22;7593;49.006;8.372;2022-08-25T06:18:37;24.90;91.00
14995;DHT22;7593;49.006;8.372;2022-08-25T06:21:09;25.10;90.70
14995;DHT22;7593;49.006;8.372;2022-08-25T06:23:37;25.30;90.60
14995;DHT22;7593;49.006;8.372;2022-08-25T06:26:06;25.40;90.20
14995;DHT22;7593;49.006;8.372;2022-08-25T06:28:35;25.50;90.10
14995;DHT22;7593;49.006;8.372;2022-08-25T06:31:02;25.50;90.20
14995;DHT22;7593;49.006;8.372;2022-08-25T06:33:29;25.60;90.00
14995;DHT22;7593;49.006;8.372;2022-08-25T06:35:56;25.90;89.60
14995;DHT22;7593;49.006;8.372;2022-08-25T06:38:24;26.00;89.10
14995;DHT22;7593;49.006;8.372;2022-08-25T06:40:52;26.10;88.50
14995;DHT22;7593;49.006;8.372;2022-08-25T06:43:21;26.10;88.50
14995;DHT22;7593;49.006;8.372;2022-08-25T06:45:48;26.20;88.40
14995;DHT22;7593;49.006;8.372;2022-08-25T06:48:15;26.20;88.50
14995;DHT22;7593;49.006;8.372;2022-08-25T06:50:42;26.30;88.30
14995;DHT22;7593;49.006;8.372;2022-08-25T06:53:09;26.50;87.50
14995;DHT22;7593;49.006;8.372;2022-08-25T06:55:36;26.50;87.60
14995;DHT22;7593;49.006;8.372;2022-08-25T06:58:04;26.70;87.40
14995;DHT22;7593;49.006;8.372;2022-08-25T07:00:32;26.70;86.80
14995;DHT22;7593;49.006;8.372;2022-08-25T07:02:59;26.90;86.60
14995;DHT22;7593;49.006;8.372;2022-08-25T07:05:26;27.00;86.50
14995;DHT22;7593;49.006;8.372;2022-08-25T07:07:53;27.10;86.00
14995;DHT22;7593;49.006;8.372;2022-08-25T07:10:20;27.40;85.60
14995;DHT22;7593;49.006;8.372;2022-08-25T07:12:47;27.50;85.00
14995;DHT22;7593;49.006;8.372;2022-08-25T07:15:14;27.40;85.10
14995;DHT22;7593;49.006;8.372;2022-08-25T07:17:42;27.30;85.30
14995;DHT22;7593;49.006;8.372;2022-08-25T07:20:09;27.20;85.50
14995;DHT22;7593;49.006;8.372;2022-08-25T07:22:36;27.30;85.60
14995;DHT22;7593;49.006;8.372;2022-08-25T07:25:05;27.30;85.80
14995;DHT22;7593;49.006;8.372;2022-08-25T07:27:32;27.50;85.30
14995;DHT22;7593;49.006;8.372;2022-08-25T07:29:59;27.70;85.00
14995;DHT22;7593;49.006;8.372;2022-08-25T07:32:26;27.90;84.40
14995;DHT22;7593;49.006;8.372;2022-08-25T07:34:54;28.00;83.90
14995;DHT22;7593;49.006;8.372;2022-08-25T07:37:38;28.20;83.60
14995;DHT22;7593;49.006;8.372;2022-08-25T07:40:08;28.40;83.10
14995;DHT22;7593;49.006;8.372;2022-08-25T07:42:35;28.60;82.60
14995;DHT22;7593;49.006;8.372;2022-08-25T07:45:03;29.00;81.60
14995;DHT22;7593;49.006;8.372;2022-08-25T07:47:30;29.40;81.00
14995;DHT22;7593;49.006;8.372;2022-08-25T07:49:59;29.50;80.40
14995;DHT22;7593;49.006;8.372;2022-08-25T07:52:25;29.60;80.30
14995;DHT22;7593;49.006;8.372;2022-08-25T07:54:52;29.60;80.00
14995;DHT22;7593;49.006;8.372;2022-08-25T07:57:19;29.60;80.50
14995;DHT22;7593;49.006;8.372;2022-08-25T07:59:49;29.70;80.10
14995;DHT22;7593;49.006;8.372;2022-08-25T08:02:15;29.70;79.70
14995;DHT22;7593;49.006;8.372;2022-08-25T08:04:42;29.80;79.30
14995;DHT22;7593;49.006;8.372;2022-08-25T08:07:11;29.80;79.40
14995;DHT22;7593;49.006;8.372;2022-08-25T08:09:38;29.80;79.50
14995;DHT22;7593;49.006;8.372;2022-08-25T08:12:06;30.00;79.20
14995;DHT22;7593;49.006;8.372;2022-08-25T08:14:33;30.30;78.60
14995;DHT22;7593;49.006;8.372;2022-08-25T08:17:04;30.60;77.90
14995;DHT22;7593;49.006;8.372;2022-08-25T08:19:31;31.00;76.60
14995;DHT22;7593;49.006;8.372;2022-08-25T08:21:58;30.90;76.50
14995;DHT22;7593;49.006;8.372;2022-08-25T08:24:28;31.10;76.50
14995;DHT22;7593;49.006;8.372;2022-08-25T08:26:54;31.50;75.40
14995;DHT22;7593;49.006;8.372;2022-08-25T08:29:21;31.60;74.70
14995;DHT22;7593;49.006;8.372;2022-08-25T08:31:48;31.80;74.20
14995;DHT22;7593;49.006;8.372;2022-08-25T08:34:16;31.60;74.50
14995;DHT22;7593;49.006;8.372;2022-08-25T08:36:43;31.60;74.40
14995;DHT22;7593;49.006;8.372;2022-08-25T08:39:09;31.80;73.80
14995;DHT22;7593;49.006;8.372;2022-08-25T08:41:49;31.80;73.10
14995;DHT22;7593;49.006;8.372;2022-08-25T08:44:44;31.70;73.00
14995;DHT22;7593;49.006;8.372;2022-08-25T08:47:23;31.70;72.90
14995;DHT22;7593;49.006;8.372;2022-08-25T08:50:00;31.70;72.20
14995;DHT22;7593;49.006;8.372;2022-08-25T08:52:36;31.70;72.30
14995;DHT22;7593;49.006;8.372;2022-08-25T08:55:09;31.60;72.30
14995;DHT22;7593;49.006;8.372;2022-08-25T08:57:43;31.40;72.70
14995;DHT22;7593;49.006;8.372;2022-08-25T09:00:12;31.40;72.70
14995;DHT22;7593;49.006;8.372;2022-08-25T09:02:51;31.60;72.10
14995;DHT22;7593;49.006;8.372;2022-08-25T09:05:20;31.80;71.50
14995;DHT22;7593;49.006;8.372;2022-08-25T09:07:53;31.80;71.20
14995;DHT22;7593;49.006;8.372;2022-08-25T09:10:22;31.70;71.10
14995;DHT22;7593;49.006;8.372;2022-08-25T09:12:57;31.30;72.20
14995;DHT22;7593;49.006;8.372;2022-08-25T09:15:33;31.20;71.80
14995;DHT22;7593;49.006;8.372;2022-08-25T09:18:22;31.50;72.00
14995;DHT22;7593;49.006;8.372;2022-08-25T09:21:03;31.80;71.50
14995;DHT22;7593;49.006;8.372;2022-08-25T09:23:39;32.20;70.90
14995;DHT22;7593;49.006;8.372;2022-08-25T09:26:21;32.30;70.00
14995;DHT22;7593;49.006;8.372;2022-08-25T09:29:00;32.20;70.00
14995;DHT22;7593;49.006;8.372;2022-08-25T09:31:31;32.40;69.50
14995;DHT22;7593;49.006;8.372;2022-08-25T09:34:01;32.70;68.70
14995;DHT22;7593;49.006;8.372;2022-08-25T09:36:29;32.90;68.20
14995;DHT22;7593;49.006;8.372;2022-08-25T09:38:56;33.00;67.40
14995;DHT22;7593;49.006;8.372;2022-08-25T09:41:39;32.80;67.30
14995;DHT22;7593;49.006;8.372;2022-08-25T09:44:17;32.70;67.00
14995;DHT22;7593;49.006;8.372;2022-08-25T09:46:54;32.80;66.70
14995;DHT22;7593;49.006;8.372;2022-08-25T09:49:33;32.60;66.70
14995;DHT22;7593;49.006;8.372;2022-08-25T09:52:19;32.70;66.70
14995;DHT22;7593;49.006;8.372;2022-08-25T09:54:47;32.60;66.20
14995;DHT22;7593;49.006;8.372;2022-08-25T09:57:31;32.40;66.60
14995;DHT22;7593;49.006;8.372;2022-08-25T10:00:16;32.60;65.40
14995;DHT22;7593;49.006;8.372;2022-08-25T10:03:02;32.60;65.00
14995;DHT22;7593;49.006;8.372;2022-08-25T10:05:30;32.50;64.00
14995;DHT22;7593;49.006;8.372;2022-08-25T10:08:02;33.00;63.30
14995;DHT22;7593;49.006;8.372;2022-08-25T10:10:32;33.20;63.50
14995;DHT22;7593;49.006;8.372;2022-08-25T10:13:00;33.30;63.10
14995;DHT22;7593;49.006;8.372;2022-08-25T10:15:35;33.50;62.40
14995;DHT22;7593;49.006;8.372;2022-08-25T10:18:23;33.70;61.80
14995;DHT22;7593;49.006;8.372;2022-08-25T10:21:08;33.70;62.50
14995;DHT22;7593;49.006;8.372;2022-08-25T10:23:39;33.80;62.40
14995;DHT22;7593;49.006;8.372;2022-08-25T10:26:12;33.80;62.50
14995;DHT22;7593;49.006;8.372;2022-08-25T10:28:47;34.00;61.80
14995;DHT22;7593;49.006;8.372;2022-08-25T10:31:21;34.30;61.50
14995;DHT22;7593;49.006;8.372;2022-08-25T10:33:58;34.30;61.60
14995;DHT22;7593;49.006;8.372;2022-08-25T10:36:35;34.50;60.60
14995;DHT22;7593;49.006;8.372;2022-08-25T10:39:04;34.50;60.80
14995;DHT22;7593;49.006;8.372;2022-08-25T10:41:44;34.90;60.40
14995;DHT22;7593;49.006;8.372;2022-08-25T10:44:19;34.90;60.10
14995;DHT22;7593;49.006;8.372;2022-08-25T10:47:37;35.10;60.20
14995;DHT22;7593;49.006;8.372;2022-08-25T10:50:16;35.30;59.30
14995;DHT22;7593;49.006;8.372;2022-08-25T10:53:05;35.20;59.60
14995;DHT22;7593;49.006;8.372;2022-08-25T10:55:45;35.00;59.80
14995;DHT22;7593;49.006;8.372;2022-08-25T10:58:22;34.90;60.10
14995;DHT22;7593;49.006;8.372;2022-08-25T11:00:55;35.00;59.90
14995;DHT22;7593;49.006;8.372;2022-08-25T11:03:36;35.00;59.80
14995;DHT22;7593;49.006;8.372;2022-08-25T11:06:12;35.30;59.50
14995;DHT22;7593;49.006;8.372;2022-08-25T11:08:43;35.60;59.00
14995;DHT22;7593;49.006;8.372;2022-08-25T11:11:17;35.60;59.30
14995;DHT22;7593;49.006;8.372;2022-08-25T11:13:53;35.60;58.60
14995;DHT22;7593;49.006;8.372;2022-08-25T11:16:32;35.60;58.60
14995;DHT22;7593;49.006;8.372;2022-08-25T11:19:08;35.80;58.40
14995;DHT22;7593;49.006;8.372;2022-08-25T11:21:43;36.00;58.30
14995;DHT22;7593;49.006;8.372;2022-08-25T11:24:25;35.90;58.60
14995;DHT22;7593;49.006;8.372;2022-08-25T11:26:55;35.70;58.10
14995;DHT22;7593;49.006;8.372;2022-08-25T11:29:25;35.70;58.10
14995;DHT22;7593;49.006;8.372;2022-08-25T11:31:57;35.40;58.60
14995;DHT22;7593;49.006;8.372;2022-08-25T11:34:27;35.60;58.20
14995;DHT22;7593;49.006;8.372;2022-08-25T11:36:58;35.30;58.40
14995;DHT22;7593;49.006;8.372;2022-08-25T11:39:43;35.70;58.20
14995;DHT22;7593;49.006;8.372;2022-08-25T11:42:23;35.90;58.00
14995;DHT22;7593;49.006;8.372;2022-08-25T11:45:04;36.10;57.50
14995;DHT22;7593;49.006;8.372;2022-08-25T11:47:45;36.10;57.30
14995;DHT22;7593;49.006;8.372;2022-08-25T11:50:28;36.10;57.10
14995;DHT22;7593;49.006;8.372;2022-08-25T11:52:56;35.90;57.20
14995;DHT22;7593;49.006;8.372;2022-08-25T11:55:31;35.80;57.60
14995;DHT22;7593;49.006;8.372;2022-08-25T11:58:37;35.90;57.40
14995;DHT22;7593;49.006;8.372;2022-08-25T12:01:08;36.00;56.80
14995;DHT22;7593;49.006;8.372;2022-08-25T12:03:52;35.80;57.10
14995;DHT22;7593;49.006;8.372;2022-08-25T12:06:27;35.60;57.60
14995;DHT22;7593;49.006;8.372;2022-08-25T12:09:17;35.70;57.60
14995;DHT22;7593;49.006;8.372;2022-08-25T12:11:48;35.80;56.50
14995;DHT22;7593;49.006;8.372;2022-08-25T12:14:36;35.80;56.10
14995;DHT22;7593;49.006;8.372;2022-08-25T12:17:10;35.90;56.10
14995;DHT22;7593;49.006;8.372;2022-08-25T12:19:57;36.00;56.30
14995;DHT22;7593;49.006;8.372;2022-08-25T12:22:53;35.90;55.80
14995;DHT22;7593;49.006;8.372;2022-08-25T12:28:38;35.50;55.70
14995;DHT22;7593;49.006;8.372;2022-08-25T12:31:15;35.60;55.70
14995;DHT22;7593;49.006;8.372;2022-08-25T12:33:52;35.70;55.90
14995;DHT22;7593;49.006;8.372;2022-08-25T12:36:27;36.00;56.00
14995;DHT22;7593;49.006;8.372;2022-08-25T12:39:17;36.50;55.10
14995;DHT22;7593;49.006;8.372;2022-08-25T12:41:57;36.30;55.30
14995;DHT22;7593;49.006;8.372;2022-08-25T12:44:40;36.00;55.40
14995;DHT22;7593;49.006;8.372;2022-08-25T12:47:26;35.80;56.00
14995;DHT22;7593;49.006;8.372;2022-08-25T12:50:23;35.80;56.10
14995;DHT22;7593;49.006;8.372;2022-08-25T12:52:51;36.00;56.00
14995;DHT22;7593;49.006;8.372;2022-08-25T12:55:21;36.40;56.10
14995;DHT22;7593;49.006;8.372;2022-08-25T12:57:53;36.70;56.00
14995;DHT22;7593;49.006;8.372;2022-08-25T13:00:26;36.80;56.00
14995;DHT22;7593;49.006;8.372;2022-08-25T13:03:20;36.90;55.40
14995;DHT22;7593;49.006;8.372;2022-08-25T13:06:25;36.80;54.70
14995;DHT22;7593;49.006;8.372;2022-08-25T13:12:04;36.80;54.90
14995;DHT22;7593;49.006;8.372;2022-08-25T13:14:37;37.00;55.00
14995;DHT22;7593;49.006;8.372;2022-08-25T13:17:04;37.20;55.60
14995;DHT22;7593;49.006;8.372;2022-08-25T13:19:32;36.70;55.80
14995;DHT22;7593;49.006;8.372;2022-08-25T13:22:01;36.20;56.00
14995;DHT22;7593;49.006;8.372;2022-08-25T13:24:32;35.70;57.00
14995;DHT22;7593;49.006;8.372;2022-08-25T13:27:04;35.50;57.10
14995;DHT22;7593;49.006;8.372;2022-08-25T13:29:34;35.60;56.90
14995;DHT22;7593;49.006;8.372;2022-08-25T13:32:03;35.80;56.70
14995;DHT22;7593;49.006;8.372;2022-08-25T13:34:33;35.90;57.20
14995;DHT22;7593;49.006;8.372;2022-08-25T13:37:05;35.90;57.10
14995;DHT22;7593;49.006;8.372;2022-08-25T13:39:46;35.90;57.20
14995;DHT22;7593;49.006;8.372;2022-08-25T13:42:15;36.00;56.90
14995;DHT22;7593;49.006;8.372;2022-08-25T13:44:43;35.90;57.20
14995;DHT22;7593;49.006;8.372;2022-08-25T13:47:12;35.90;57.20
14995;DHT22;7593;49.006;8.372;2022-08-25T13:49:41;35.90;56.70
14995;DHT22;7593;49.006;8.372;2022-08-25T13:52:15;35.90;56.90
14995;DHT22;7593;49.006;8.372;2022-08-25T13:54:44;36.00;56.60
14995;DHT22;7593;49.006;8.372;2022-08-25T13:57:16;36.10;55.40
14995;DHT22;7593;49.006;8.372;2022-08-25T13:59:48;36.00;55.70
14995;DHT22;7593;49.006;8.372;2022-08-25T14:02:40;35.90;56.00
14995;DHT22;7593;49.006;8.372;2022-08-25T14:05:07;36.00;56.10
14995;DHT22;7593;49.006;8.372;2022-08-25T14:07:35;35.90;56.30
14995;DHT22;7593;49.006;8.372;2022-08-25T14:10:05;35.90;56.60
14995;DHT22;7593;49.006;8.372;2022-08-25T14:12:38;35.60;56.30
14995;DHT22;7593;49.006;8.372;2022-08-25T14:15:09;35.50;56.20
14995;DHT22;7593;49.006;8.372;2022-08-25T14:17:38;35.40;56.40
14995;DHT22;7593;49.006;8.372;2022-08-25T14:20:16;35.50;56.50
14995;DHT22;7593;49.006;8.372;2022-08-25T14:22:43;35.50;56.50
14995;DHT22;7593;49.006;8.372;2022-08-25T14:25:09;35.70;56.60
14995;DHT22;7593;49.006;8.372;2022-08-25T14:27:40;35.70;56.00
14995;DHT22;7593;49.006;8.372;2022-08-25T14:30:08;35.60;56.10
14995;DHT22;7593;49.006;8.372;2022-08-25T14:32:36;35.70;55.80
14995;DHT22;7593;49.006;8.372;2022-08-25T14:35:03;35.50;55.80
14995;DHT22;7593;49.006;8.372;2022-08-25T14:37:30;35.30;56.20
14995;DHT22;7593;49.006;8.372;2022-08-25T14:39:56;35.30;56.20
14995;DHT22;7593;49.006;8.372;2022-08-25T14:42:23;35.20;56.30
14995;DHT22;7593;49.006;8.372;2022-08-25T14:44:52;35.30;56.30
14995;DHT22;7593;49.006;8.372;2022-08-25T14:47:18;35.60;56.30
14995;DHT22;7593;49.006;8.372;2022-08-25T14:49:46;35.70;55.90
14995;DHT22;7593;49.006;8.372;2022-08-25T14:52:17;35.80;55.60
14995;DHT22;7593;49.006;8.372;2022-08-25T14:54:44;35.40;56.00
14995;DHT22;7593;49.006;8.372;2022-08-25T14:57:11;35.30;56.20
14995;DHT22;7593;49.006;8.372;2022-08-25T14:59:38;35.20;56.60
14995;DHT22;7593;49.006;8.372;2022-08-25T15:02:06;35.20;56.20
14995;DHT22;7593;49.006;8.372;2022-08-25T15:04:34;35.00;56.40
14995;DHT22;7593;49.006;8.372;2022-08-25T15:07:01;35.00;56.70
14995;DHT22;7593;49.006;8.372;2022-08-25T15:09:48;34.90;56.60
14995;DHT22;7593;49.006;8.372;2022-08-25T15:12:14;35.10;56.70
14995;DHT22;7593;49.006;8.372;2022-08-25T15:14:41;35.00;56.60
14995;DHT22;7593;49.006;8.372;2022-08-25T15:17:09;35.10;56.20
14995;DHT22;7593;49.006;8.372;2022-08-25T15:19:36;35.10;56.10
14995;DHT22;7593;49.006;8.372;2022-08-25T15:22:03;35.00;56.10
14995;DHT22;7593;49.006;8.372;2022-08-25T15:24:30;34.90;56.10
14995;DHT22;7593;49.006;8.372;2022-08-25T15:26:58;34.90;55.90
14995;DHT22;7593;49.006;8.372;2022-08-25T15:29:26;34.80;56.90
14995;DHT22;7593;49.006;8.372;2022-08-25T15:31:54;34.80;56.30
14995;DHT22;7593;49.006;8.372;2022-08-25T15:34:23;34.80;56.10
14995;DHT22;7593;49.006;8.372;2022-08-25T15:36:50;34.80;56.30
14995;DHT22;7593;49.006;8.372;2022-08-25T15:39:17;34.80;56.00
14995;DHT22;7593;49.006;8.372;2022-08-25T15:41:44;34.80;55.80
14995;DHT22;7593;49.006;8.372;2022-08-25T15:44:12;34.80;56.20
14995;DHT22;7593;49.006;8.372;2022-08-25T15:46:40;34.80;56.10
14995;DHT22;7593;49.006;8.372;2022-08-25T15:49:07;34.70;56.20
14995;DHT22;7593;49.006;8.372;2022-08-25T15:51:35;34.70;56.20
14995;DHT22;7593;49.006;8.372;2022-08-25T15:54:02;34.60;56.20
14995;DHT22;7593;49.006;8.372;2022-08-25T15:56:30;34.60;56.30
14995;DHT22;7593;49.006;8.372;2022-08-25T15:58:56;34.50;56.30
14995;DHT22;7593;49.006;8.372;2022-08-25T16:01:25;34.40;56.30
14995;DHT22;7593;49.006;8.372;2022-08-25T16:03:52;34.20;56.40
14995;DHT22;7593;49.006;8.372;2022-08-25T16:06:20;34.20;56.40
14995;DHT22;7593;49.006;8.372;2022-08-25T16:08:48;34.10;56.50
14995;DHT22;7593;49.006;8.372;2022-08-25T16:11:17;34.10;56.60
14995;DHT22;7593;49.006;8.372;2022-08-25T16:13:47;34.10;56.50